Welcome in flight space of Fly For Fun flying school
Zkoušky z teorie PPL(A), LAPL(A) NEBO ULL? Zkoušky z teorie PPL(A), LAPL(A) NEBO ULL?
Webcam - LKSZ Webcam - LKSZ More

For Pilots

UTC
LOC
METAR/TAF
METAR LKPR 221700Z 28002KT 9999 FEW030 00/M02 Q1028 NOSIG RMK REG QNH 1023=
TAF LKPR 221100Z 2212/2318 33010KT 9999 BKN035TEMPO 2212/2221 SCT035BECMG 2221/2223 BKN017TEMPO 2223/2307 BKN011PROB30 TEMPO 2301/2307 4000 -SNRA OVC009TEMPO 2313/2318 6000 -RA OVC009=
Sunrise, sunset and civil twilight for LKSZ

Weather

Navigation services

Other important links